sensor_id;sensor_type;location;lat;lon;timestamp;pressure;altitude;pressure_sealevel;temperature;humidity
64698;BME280;51124;53.394;-6.294;2023-12-22T00:01:41;100626.46;;;17.17;10.55
64698;BME280;51124;53.394;-6.294;2023-12-22T00:04:09;100629.39;;;17.27;10.33
64698;BME280;51124;53.394;-6.294;2023-12-22T00:06:36;100621.22;;;16.19;10.57
64698;BME280;51124;53.394;-6.294;2023-12-22T00:09:04;100623.27;;;16.25;10.38
64698;BME280;51124;53.394;-6.294;2023-12-22T00:11:31;100615.08;;;17.16;10.09
64698;BME280;51124;53.394;-6.294;2023-12-22T00:13:58;100626.35;;;17.06;10.23
64698;BME280;51124;53.394;-6.294;2023-12-22T00:16:26;100623.08;;;16.77;10.21
64698;BME280;51124;53.394;-6.294;2023-12-22T00:18:53;100626.14;;;16.86;10.25
64698;BME280;51124;53.394;-6.294;2023-12-22T00:21:20;100623.49;;;16.01;10.26
64698;BME280;51124;53.394;-6.294;2023-12-22T00:23:48;100615.76;;;15.90;10.26
64698;BME280;51124;53.394;-6.294;2023-12-22T00:26:15;100628.87;;;16.16;10.43
64698;BME280;51124;53.394;-6.294;2023-12-22T00:28:42;100614.12;;;16.88;10.12
64698;BME280;51124;53.394;-6.294;2023-12-22T00:31:10;100619.25;;;16.64;10.21
64698;BME280;51124;53.394;-6.294;2023-12-22T00:33:37;100610.18;;;16.17;10.11
64698;BME280;51124;53.394;-6.294;2023-12-22T00:36:05;100617.87;;;16.15;10.22
64698;BME280;51124;53.394;-6.294;2023-12-22T00:38:32;100619.82;;;16.69;10.12
64698;BME280;51124;53.394;-6.294;2023-12-22T00:41:00;100618.49;;;16.60;9.99
64698;BME280;51124;53.394;-6.294;2023-12-22T00:43:27;100624.55;;;16.22;10.00
64698;BME280;51124;53.394;-6.294;2023-12-22T00:45:54;100622.26;;;16.72;10.09
64698;BME280;51124;53.394;-6.294;2023-12-22T00:48:22;100629.75;;;16.56;10.25
64698;BME280;51124;53.394;-6.294;2023-12-22T00:50:49;100636.43;;;15.76;10.26
64698;BME280;51124;53.394;-6.294;2023-12-22T00:53:17;100636.48;;;16.22;10.35
64698;BME280;51124;53.394;-6.294;2023-12-22T00:55:44;100627.01;;;15.93;10.34
64698;BME280;51124;53.394;-6.294;2023-12-22T00:58:11;100619.44;;;16.81;10.04
64698;BME280;51124;53.394;-6.294;2023-12-22T01:00:39;100617.92;;;16.74;10.22
64698;BME280;51124;53.394;-6.294;2023-12-22T01:03:06;100630.72;;;17.35;10.37
64698;BME280;51124;53.394;-6.294;2023-12-22T01:05:33;100622.60;;;16.40;10.35
64698;BME280;51124;53.394;-6.294;2023-12-22T01:08:01;100622.46;;;16.23;10.41
64698;BME280;51124;53.394;-6.294;2023-12-22T01:10:28;100631.37;;;16.12;10.30
64698;BME280;51124;53.394;-6.294;2023-12-22T01:12:56;100626.45;;;16.60;10.27
64698;BME280;51124;53.394;-6.294;2023-12-22T01:15:23;100621.11;;;18.37;10.26
64698;BME280;51124;53.394;-6.294;2023-12-22T01:17:51;100618.05;;;17.13;10.24
64698;BME280;51124;53.394;-6.294;2023-12-22T01:20:18;100625.72;;;16.65;10.36
64698;BME280;51124;53.394;-6.294;2023-12-22T01:22:45;100627.49;;;16.33;10.23
64698;BME280;51124;53.394;-6.294;2023-12-22T01:25:13;100614.87;;;15.61;10.23
64698;BME280;51124;53.394;-6.294;2023-12-22T01:27:40;100613.15;;;15.94;10.30
64698;BME280;51124;53.394;-6.294;2023-12-22T01:30:08;100621.08;;;16.51;10.18
64698;BME280;51124;53.394;-6.294;2023-12-22T01:32:36;100610.83;;;18.97;10.36
64698;BME280;51124;53.394;-6.294;2023-12-22T01:35:04;100617.36;;;18.99;10.77
64698;BME280;51124;53.394;-6.294;2023-12-22T01:37:31;100613.91;;;17.88;11.05
64698;BME280;51124;53.394;-6.294;2023-12-22T01:39:59;100615.37;;;16.45;11.18
64698;BME280;51124;53.394;-6.294;2023-12-22T01:42:26;100609.27;;;19.83;11.10
64698;BME280;51124;53.394;-6.294;2023-12-22T01:44:54;100610.27;;;19.41;11.59
64698;BME280;51124;53.394;-6.294;2023-12-22T01:47:21;100615.55;;;19.64;11.85
64698;BME280;51124;53.394;-6.294;2023-12-22T01:49:49;100611.40;;;19.21;11.94
64698;BME280;51124;53.394;-6.294;2023-12-22T01:52:17;100607.91;;;19.40;12.11
64698;BME280;51124;53.394;-6.294;2023-12-22T01:54:45;100615.91;;;19.26;12.19
64698;BME280;51124;53.394;-6.294;2023-12-22T01:57:15;100619.62;;;19.34;12.29
64698;BME280;51124;53.394;-6.294;2023-12-22T01:59:44;100609.73;;;18.50;12.38
64698;BME280;51124;53.394;-6.294;2023-12-22T02:02:12;100620.49;;;18.77;12.42
64698;BME280;51124;53.394;-6.294;2023-12-22T02:04:40;100614.73;;;18.32;12.41
64698;BME280;51124;53.394;-6.294;2023-12-22T02:07:08;100621.25;;;18.92;12.36
64698;BME280;51124;53.394;-6.294;2023-12-22T02:09:36;100628.34;;;18.95;12.50
64698;BME280;51124;53.394;-6.294;2023-12-22T02:12:05;100624.47;;;18.98;12.34
64698;BME280;51124;53.394;-6.294;2023-12-22T02:14:32;100624.95;;;18.47;12.72
64698;BME280;51124;53.394;-6.294;2023-12-22T02:17:07;100620.63;;;18.05;12.66
64698;BME280;51124;53.394;-6.294;2023-12-22T02:19:38;100622.63;;;18.61;12.50
64698;BME280;51124;53.394;-6.294;2023-12-22T02:22:05;100616.74;;;18.66;12.51
64698;BME280;51124;53.394;-6.294;2023-12-22T02:24:23;100606.71;;;19.11;12.52
64698;BME280;51124;53.394;-6.294;2023-12-22T02:26:51;100612.33;;;18.02;12.62
64698;BME280;51124;53.394;-6.294;2023-12-22T02:29:19;100617.35;;;18.57;12.62
64698;BME280;51124;53.394;-6.294;2023-12-22T02:31:51;100620.73;;;17.50;12.54
64698;BME280;51124;53.394;-6.294;2023-12-22T02:34:21;100616.43;;;16.53;12.43
64698;BME280;51124;53.394;-6.294;2023-12-22T02:36:51;100621.11;;;16.25;11.96
64698;BME280;51124;53.394;-6.294;2023-12-22T02:39:20;100620.69;;;15.72;11.67
64698;BME280;51124;53.394;-6.294;2023-12-22T02:41:48;100619.87;;;16.67;11.33
64698;BME280;51124;53.394;-6.294;2023-12-22T02:44:16;100618.29;;;17.00;11.12
64698;BME280;51124;53.394;-6.294;2023-12-22T02:46:44;100627.89;;;15.66;11.18
64698;BME280;51124;53.394;-6.294;2023-12-22T02:49:11;100626.42;;;16.03;11.02
64698;BME280;51124;53.394;-6.294;2023-12-22T02:51:38;100629.20;;;16.85;10.68
64698;BME280;51124;53.394;-6.294;2023-12-22T02:54:06;100617.25;;;16.20;10.82
64698;BME280;51124;53.394;-6.294;2023-12-22T02:56:33;100629.46;;;15.47;10.67
64698;BME280;51124;53.394;-6.294;2023-12-22T02:59:00;100622.05;;;16.76;10.40
64698;BME280;51124;53.394;-6.294;2023-12-22T03:01:28;100622.28;;;16.23;10.38
64698;BME280;51124;53.394;-6.294;2023-12-22T03:03:55;100638.79;;;16.04;10.50
64698;BME280;51124;53.394;-6.294;2023-12-22T03:06:22;100642.08;;;16.52;10.42
64698;BME280;51124;53.394;-6.294;2023-12-22T03:08:50;100647.80;;;16.00;10.27
64698;BME280;51124;53.394;-6.294;2023-12-22T03:11:17;100640.72;;;16.32;10.40
64698;BME280;51124;53.394;-6.294;2023-12-22T03:13:45;100637.57;;;16.08;10.37
64698;BME280;51124;53.394;-6.294;2023-12-22T03:16:12;100654.41;;;16.56;10.21
64698;BME280;51124;53.394;-6.294;2023-12-22T03:18:39;100653.80;;;15.83;10.33
64698;BME280;51124;53.394;-6.294;2023-12-22T03:21:07;100651.51;;;16.21;10.31
64698;BME280;51124;53.394;-6.294;2023-12-22T03:23:34;100651.17;;;16.16;10.15
64698;BME280;51124;53.394;-6.294;2023-12-22T03:26:05;100653.11;;;15.62;10.24
64698;BME280;51124;53.394;-6.294;2023-12-22T03:28:32;100649.29;;;15.85;10.27
64698;BME280;51124;53.394;-6.294;2023-12-22T03:30:59;100648.43;;;16.64;9.95
64698;BME280;51124;53.394;-6.294;2023-12-22T03:33:27;100644.49;;;16.00;10.14
64698;BME280;51124;53.394;-6.294;2023-12-22T03:35:54;100643.23;;;15.34;10.19
64698;BME280;51124;53.394;-6.294;2023-12-22T03:38:22;100648.19;;;15.85;10.19
64698;BME280;51124;53.394;-6.294;2023-12-22T03:40:49;100640.99;;;15.68;10.10
64698;BME280;51124;53.394;-6.294;2023-12-22T03:43:16;100648.89;;;15.87;10.18
64698;BME280;51124;53.394;-6.294;2023-12-22T03:45:44;100632.76;;;15.57;10.15
64698;BME280;51124;53.394;-6.294;2023-12-22T03:48:11;100638.60;;;16.33;9.97
64698;BME280;51124;53.394;-6.294;2023-12-22T03:50:38;100637.61;;;15.42;10.26
64698;BME280;51124;53.394;-6.294;2023-12-22T03:53:06;100641.41;;;16.15;10.09
64698;BME280;51124;53.394;-6.294;2023-12-22T03:55:33;100645.93;;;16.63;10.00
64698;BME280;51124;53.394;-6.294;2023-12-22T03:58:00;100632.77;;;16.27;10.11
64698;BME280;51124;53.394;-6.294;2023-12-22T04:00:28;100639.08;;;15.25;10.21
64698;BME280;51124;53.394;-6.294;2023-12-22T04:02:55;100642.13;;;15.86;10.04
64698;BME280;51124;53.394;-6.294;2023-12-22T04:05:23;100644.92;;;16.71;10.17
64698;BME280;51124;53.394;-6.294;2023-12-22T04:07:50;100638.68;;;15.42;10.28
64698;BME280;51124;53.394;-6.294;2023-12-22T04:10:18;100656.42;;;15.70;10.26
64698;BME280;51124;53.394;-6.294;2023-12-22T04:12:46;100647.86;;;14.93;10.33
64698;BME280;51124;53.394;-6.294;2023-12-22T04:15:13;100651.31;;;15.35;10.21
64698;BME280;51124;53.394;-6.294;2023-12-22T04:17:40;100650.33;;;16.26;10.32
64698;BME280;51124;53.394;-6.294;2023-12-22T04:20:08;100647.19;;;16.24;10.23
64698;BME280;51124;53.394;-6.294;2023-12-22T04:22:36;100651.51;;;15.64;10.31
64698;BME280;51124;53.394;-6.294;2023-12-22T04:25:03;100648.19;;;15.31;10.23
64698;BME280;51124;53.394;-6.294;2023-12-22T04:27:31;100649.78;;;15.70;10.22
64698;BME280;51124;53.394;-6.294;2023-12-22T04:29:58;100648.22;;;16.01;10.26
64698;BME280;51124;53.394;-6.294;2023-12-22T04:32:26;100643.25;;;15.27;10.29
64698;BME280;51124;53.394;-6.294;2023-12-22T04:34:53;100647.91;;;17.96;10.24
64698;BME280;51124;53.394;-6.294;2023-12-22T04:37:20;100646.12;;;18.15;10.60
64698;BME280;51124;53.394;-6.294;2023-12-22T04:39:48;100655.61;;;17.88;10.89
64698;BME280;51124;53.394;-6.294;2023-12-22T04:42:15;100655.09;;;17.59;10.84
64698;BME280;51124;53.394;-6.294;2023-12-22T04:44:43;100650.04;;;19.66;10.88
64698;BME280;51124;53.394;-6.294;2023-12-22T04:47:10;100643.48;;;19.00;11.38
64698;BME280;51124;53.394;-6.294;2023-12-22T04:49:38;100644.22;;;18.07;11.82
64698;BME280;51124;53.394;-6.294;2023-12-22T04:52:05;100636.45;;;18.73;11.92
64698;BME280;51124;53.394;-6.294;2023-12-22T04:54:33;100639.25;;;19.05;12.09
64698;BME280;51124;53.394;-6.294;2023-12-22T04:57:00;100645.55;;;18.55;11.99
64698;BME280;51124;53.394;-6.294;2023-12-22T04:59:28;100644.55;;;18.09;12.24
64698;BME280;51124;53.394;-6.294;2023-12-22T05:01:55;100637.13;;;18.62;12.28
64698;BME280;51124;53.394;-6.294;2023-12-22T05:04:23;100632.10;;;18.44;12.33
64698;BME280;51124;53.394;-6.294;2023-12-22T05:06:51;100631.41;;;17.75;12.39
64698;BME280;51124;53.394;-6.294;2023-12-22T05:09:18;100636.25;;;18.15;12.45
64698;BME280;51124;53.394;-6.294;2023-12-22T05:11:46;100637.78;;;18.48;12.40
64698;BME280;51124;53.394;-6.294;2023-12-22T05:14:14;100636.02;;;18.36;12.42
64698;BME280;51124;53.394;-6.294;2023-12-22T05:16:42;100636.05;;;18.72;12.33
64698;BME280;51124;53.394;-6.294;2023-12-22T05:19:19;100649.78;;;18.59;12.40
64698;BME280;51124;53.394;-6.294;2023-12-22T05:21:47;100646.01;;;18.23;12.47
64698;BME280;51124;53.394;-6.294;2023-12-22T05:24:14;100653.39;;;18.85;12.34
64698;BME280;51124;53.394;-6.294;2023-12-22T05:26:42;100661.58;;;18.22;12.49
64698;BME280;51124;53.394;-6.294;2023-12-22T05:29:10;100659.91;;;17.95;12.48
64698;BME280;51124;53.394;-6.294;2023-12-22T05:31:37;100662.86;;;17.75;12.48
64698;BME280;51124;53.394;-6.294;2023-12-22T05:34:05;100672.19;;;18.25;12.50
64698;BME280;51124;53.394;-6.294;2023-12-22T05:36:33;100667.97;;;15.78;12.27
64698;BME280;51124;53.394;-6.294;2023-12-22T05:39:00;100679.15;;;15.54;11.95
64698;BME280;51124;53.394;-6.294;2023-12-22T05:41:28;100677.88;;;16.57;11.30
64698;BME280;51124;53.394;-6.294;2023-12-22T05:43:55;100674.77;;;16.66;11.02
64698;BME280;51124;53.394;-6.294;2023-12-22T05:46:23;100684.15;;;16.45;11.01
64698;BME280;51124;53.394;-6.294;2023-12-22T05:48:50;100682.18;;;15.27;10.95
64698;BME280;51124;53.394;-6.294;2023-12-22T05:51:17;100689.93;;;15.66;10.73
64698;BME280;51124;53.394;-6.294;2023-12-22T05:53:45;100687.35;;;16.35;10.65
64698;BME280;51124;53.394;-6.294;2023-12-22T05:56:20;100684.66;;;15.82;10.51
64698;BME280;51124;53.394;-6.294;2023-12-22T05:58:38;100687.09;;;15.61;10.57
64698;BME280;51124;53.394;-6.294;2023-12-22T06:01:05;100689.67;;;15.98;10.51
64698;BME280;51124;53.394;-6.294;2023-12-22T06:03:32;100690.61;;;16.13;10.37
64698;BME280;51124;53.394;-6.294;2023-12-22T06:06:00;100682.59;;;16.79;10.16
64698;BME280;51124;53.394;-6.294;2023-12-22T06:08:27;100685.65;;;15.62;10.38
64698;BME280;51124;53.394;-6.294;2023-12-22T06:10:55;100686.37;;;15.09;10.38
64698;BME280;51124;53.394;-6.294;2023-12-22T06:13:22;100676.08;;;15.57;10.29
64698;BME280;51124;53.394;-6.294;2023-12-22T06:15:50;100693.28;;;15.71;10.33
64698;BME280;51124;53.394;-6.294;2023-12-22T06:18:17;100676.12;;;15.41;10.30
64698;BME280;51124;53.394;-6.294;2023-12-22T06:20:44;100687.83;;;15.94;10.19
64698;BME280;51124;53.394;-6.294;2023-12-22T06:23:12;100682.44;;;15.22;10.28
64698;BME280;51124;53.394;-6.294;2023-12-22T06:25:39;100686.24;;;15.97;10.08
64698;BME280;51124;53.394;-6.294;2023-12-22T06:28:07;100694.42;;;16.02;10.11
64698;BME280;51124;53.394;-6.294;2023-12-22T06:30:34;100688.65;;;16.15;10.06
64698;BME280;51124;53.394;-6.294;2023-12-22T06:33:02;100692.93;;;15.41;10.24
64698;BME280;51124;53.394;-6.294;2023-12-22T06:35:30;100693.42;;;15.52;10.19
64698;BME280;51124;53.394;-6.294;2023-12-22T06:37:57;100696.06;;;16.57;10.05
64698;BME280;51124;53.394;-6.294;2023-12-22T06:40:24;100699.24;;;16.31;10.15
64698;BME280;51124;53.394;-6.294;2023-12-22T06:42:52;100696.49;;;15.90;10.07
64698;BME280;51124;53.394;-6.294;2023-12-22T06:45:19;100695.34;;;15.01;10.09
64698;BME280;51124;53.394;-6.294;2023-12-22T06:47:47;100695.31;;;15.58;10.08
64698;BME280;51124;53.394;-6.294;2023-12-22T06:50:14;100699.69;;;16.17;9.92
64698;BME280;51124;53.394;-6.294;2023-12-22T06:52:42;100710.30;;;15.99;9.95
64698;BME280;51124;53.394;-6.294;2023-12-22T06:55:09;100715.93;;;15.78;9.90
64698;BME280;51124;53.394;-6.294;2023-12-22T06:57:37;100712.97;;;15.51;10.02
64698;BME280;51124;53.394;-6.294;2023-12-22T07:00:12;100721.09;;;16.03;10.18
64698;BME280;51124;53.394;-6.294;2023-12-22T07:02:39;100727.44;;;15.24;10.12
64698;BME280;51124;53.394;-6.294;2023-12-22T07:05:38;100729.47;;;15.35;10.04
64698;BME280;51124;53.394;-6.294;2023-12-22T07:07:35;100723.92;;;16.60;9.98
64698;BME280;51124;53.394;-6.294;2023-12-22T07:10:02;100714.74;;;15.40;10.12
64698;BME280;51124;53.394;-6.294;2023-12-22T07:12:30;100716.03;;;16.16;9.97
64698;BME280;51124;53.394;-6.294;2023-12-22T07:14:57;100713.12;;;16.25;10.07
64698;BME280;51124;53.394;-6.294;2023-12-22T07:17:25;100725.67;;;15.00;10.01
64698;BME280;51124;53.394;-6.294;2023-12-22T07:19:52;100723.98;;;16.54;10.09
64698;BME280;51124;53.394;-6.294;2023-12-22T07:22:20;100721.49;;;15.70;10.08
64698;BME280;51124;53.394;-6.294;2023-12-22T07:24:47;100730.84;;;15.67;10.20
64698;BME280;51124;53.394;-6.294;2023-12-22T07:27:15;100731.11;;;15.90;10.06
64698;BME280;51124;53.394;-6.294;2023-12-22T07:29:42;100726.36;;;14.26;10.21
64698;BME280;51124;53.394;-6.294;2023-12-22T07:32:09;100724.18;;;15.95;9.96
64698;BME280;51124;53.394;-6.294;2023-12-22T07:34:37;100717.54;;;15.52;10.01
64698;BME280;51124;53.394;-6.294;2023-12-22T07:37:04;100735.01;;;17.95;10.22
64698;BME280;51124;53.394;-6.294;2023-12-22T07:39:32;100734.79;;;19.14;10.14
64698;BME280;51124;53.394;-6.294;2023-12-22T07:41:59;100738.58;;;17.74;10.40
64698;BME280;51124;53.394;-6.294;2023-12-22T07:44:27;100726.95;;;17.29;10.45
64698;BME280;51124;53.394;-6.294;2023-12-22T07:46:58;100731.08;;;20.62;10.39
64698;BME280;51124;53.394;-6.294;2023-12-22T07:49:26;100723.00;;;20.00;10.72
64698;BME280;51124;53.394;-6.294;2023-12-22T07:51:54;100738.63;;;19.88;11.07
64698;BME280;51124;53.394;-6.294;2023-12-22T07:54:22;100732.36;;;19.86;11.10
64698;BME280;51124;53.394;-6.294;2023-12-22T07:56:50;100739.77;;;19.88;11.28
64698;BME280;51124;53.394;-6.294;2023-12-22T07:59:17;100742.67;;;19.48;11.40
64698;BME280;51124;53.394;-6.294;2023-12-22T08:01:45;100748.28;;;20.61;11.29
64698;BME280;51124;53.394;-6.294;2023-12-22T08:04:13;100758.22;;;20.01;11.35
64698;BME280;51124;53.394;-6.294;2023-12-22T08:06:40;100764.67;;;20.38;11.21
64698;BME280;51124;53.394;-6.294;2023-12-22T08:09:07;100756.93;;;20.22;11.32
64698;BME280;51124;53.394;-6.294;2023-12-22T08:11:35;100756.85;;;20.00;11.30
64698;BME280;51124;53.394;-6.294;2023-12-22T08:14:03;100764.96;;;21.51;10.73
64698;BME280;51124;53.394;-6.294;2023-12-22T08:16:30;100775.09;;;21.79;10.49
64698;BME280;51124;53.394;-6.294;2023-12-22T08:18:58;100777.75;;;20.51;10.81
64698;BME280;51124;53.394;-6.294;2023-12-22T08:21:25;100771.96;;;20.58;10.96
64698;BME280;51124;53.394;-6.294;2023-12-22T08:23:53;100771.52;;;20.85;10.98
64698;BME280;51124;53.394;-6.294;2023-12-22T08:26:21;100779.04;;;19.66;11.22
64698;BME280;51124;53.394;-6.294;2023-12-22T08:28:48;100788.66;;;20.14;11.24
64698;BME280;51124;53.394;-6.294;2023-12-22T08:31:16;100785.73;;;19.40;11.32
64698;BME280;51124;53.394;-6.294;2023-12-22T08:33:44;100802.92;;;19.58;11.35
64698;BME280;51124;53.394;-6.294;2023-12-22T08:36:11;100793.81;;;19.79;11.35
64698;BME280;51124;53.394;-6.294;2023-12-22T08:38:39;100797.46;;;17.50;11.13
64698;BME280;51124;53.394;-6.294;2023-12-22T08:41:06;100802.99;;;17.29;10.88
64698;BME280;51124;53.394;-6.294;2023-12-22T08:43:34;100803.05;;;17.83;10.53
64698;BME280;51124;53.394;-6.294;2023-12-22T08:46:02;100806.49;;;18.14;10.15
64698;BME280;51124;53.394;-6.294;2023-12-22T08:48:29;100814.77;;;18.27;10.16
64698;BME280;51124;53.394;-6.294;2023-12-22T08:50:57;100816.88;;;18.28;10.14
64698;BME280;51124;53.394;-6.294;2023-12-22T08:53:24;100821.71;;;17.01;10.11
64698;BME280;51124;53.394;-6.294;2023-12-22T08:55:51;100830.35;;;17.05;9.96
64698;BME280;51124;53.394;-6.294;2023-12-22T08:58:19;100826.83;;;17.82;9.81
64698;BME280;51124;53.394;-6.294;2023-12-22T09:00:47;100823.66;;;16.64;9.90
64698;BME280;51124;53.394;-6.294;2023-12-22T09:03:14;100829.04;;;16.59;9.78
64698;BME280;51124;53.394;-6.294;2023-12-22T09:05:41;100833.22;;;17.32;9.84
64698;BME280;51124;53.394;-6.294;2023-12-22T09:08:09;100827.23;;;17.45;9.79
64698;BME280;51124;53.394;-6.294;2023-12-22T09:10:36;100827.29;;;16.26;10.03
64698;BME280;51124;53.394;-6.294;2023-12-22T09:13:04;100828.23;;;16.70;9.84
64698;BME280;51124;53.394;-6.294;2023-12-22T09:15:32;100834.94;;;15.96;9.94
64698;BME280;51124;53.394;-6.294;2023-12-22T09:17:59;100827.41;;;16.22;9.88
64698;BME280;51124;53.394;-6.294;2023-12-22T09:20:26;100838.70;;;16.02;10.09
64698;BME280;51124;53.394;-6.294;2023-12-22T09:22:54;100841.80;;;16.96;9.93
64698;BME280;51124;53.394;-6.294;2023-12-22T09:25:23;100829.68;;;17.13;9.97
64698;BME280;51124;53.394;-6.294;2023-12-22T09:27:50;100826.54;;;17.28;9.83
64698;BME280;51124;53.394;-6.294;2023-12-22T09:30:18;100831.08;;;16.92;9.56
64698;BME280;51124;53.394;-6.294;2023-12-22T09:32:45;100829.83;;;17.28;9.48
64698;BME280;51124;53.394;-6.294;2023-12-22T09:35:13;100829.51;;;17.05;9.43
64698;BME280;51124;53.394;-6.294;2023-12-22T09:37:41;100834.46;;;17.29;9.38
64698;BME280;51124;53.394;-6.294;2023-12-22T09:40:10;100822.46;;;17.89;9.31
64698;BME280;51124;53.394;-6.294;2023-12-22T09:42:38;100813.97;;;16.30;9.71
64698;BME280;51124;53.394;-6.294;2023-12-22T09:45:10;100800.39;;;16.27;9.88
64698;BME280;51124;53.394;-6.294;2023-12-22T09:47:39;100810.80;;;16.17;9.76
64698;BME280;51124;53.394;-6.294;2023-12-22T09:50:09;100812.93;;;17.75;9.30
64698;BME280;51124;53.394;-6.294;2023-12-22T09:52:37;100811.16;;;16.97;9.37
64698;BME280;51124;53.394;-6.294;2023-12-22T09:55:07;100824.62;;;16.97;9.37
64698;BME280;51124;53.394;-6.294;2023-12-22T09:57:35;100819.84;;;17.56;9.24
64698;BME280;51124;53.394;-6.294;2023-12-22T10:00:05;100823.57;;;17.21;9.31
64698;BME280;51124;53.394;-6.294;2023-12-22T10:02:36;100830.37;;;16.52;9.32
64698;BME280;51124;53.394;-6.294;2023-12-22T10:05:03;100829.35;;;17.56;9.26
64698;BME280;51124;53.394;-6.294;2023-12-22T10:07:32;100829.77;;;16.94;9.35
64698;BME280;51124;53.394;-6.294;2023-12-22T10:09:59;100828.49;;;17.18;9.30
64698;BME280;51124;53.394;-6.294;2023-12-22T10:12:29;100838.26;;;17.29;9.45
64698;BME280;51124;53.394;-6.294;2023-12-22T10:14:57;100835.10;;;16.71;9.55
64698;BME280;51124;53.394;-6.294;2023-12-22T10:17:26;100836.45;;;16.17;9.64
64698;BME280;51124;53.394;-6.294;2023-12-22T10:19:54;100834.47;;;17.96;9.75
64698;BME280;51124;53.394;-6.294;2023-12-22T10:22:21;100845.23;;;15.30;10.26
64698;BME280;51124;53.394;-6.294;2023-12-22T10:24:49;100842.16;;;18.56;9.71
64698;BME280;51124;53.394;-6.294;2023-12-22T10:27:17;100839.70;;;19.01;8.94
64698;BME280;51124;53.394;-6.294;2023-12-22T10:29:45;100844.49;;;19.63;8.72
64698;BME280;51124;53.394;-6.294;2023-12-22T10:32:12;100848.44;;;18.66;8.46
64698;BME280;51124;53.394;-6.294;2023-12-22T10:34:39;100852.44;;;18.92;8.42
64698;BME280;51124;53.394;-6.294;2023-12-22T10:37:07;100848.75;;;18.61;8.79
64698;BME280;51124;53.394;-6.294;2023-12-22T10:39:35;100853.60;;;17.31;9.73
64698;BME280;51124;53.394;-6.294;2023-12-22T10:42:04;100844.15;;;17.75;10.22
64698;BME280;51124;53.394;-6.294;2023-12-22T10:44:32;100855.06;;;18.18;10.82
64698;BME280;51124;53.394;-6.294;2023-12-22T10:47:00;100857.09;;;17.97;11.09
64698;BME280;51124;53.394;-6.294;2023-12-22T10:49:28;100861.51;;;16.41;11.38
64698;BME280;51124;53.394;-6.294;2023-12-22T10:51:57;100857.71;;;18.88;11.00
64698;BME280;51124;53.394;-6.294;2023-12-22T10:54:25;100852.52;;;19.88;11.51
64698;BME280;51124;53.394;-6.294;2023-12-22T10:56:54;100864.07;;;19.37;11.85
64698;BME280;51124;53.394;-6.294;2023-12-22T10:59:27;100864.65;;;19.61;11.83
64698;BME280;51124;53.394;-6.294;2023-12-22T11:01:58;100874.06;;;19.12;12.05
64698;BME280;51124;53.394;-6.294;2023-12-22T11:04:31;100870.30;;;18.32;12.25
64698;BME280;51124;53.394;-6.294;2023-12-22T11:06:53;100875.40;;;18.54;12.30
64698;BME280;51124;53.394;-6.294;2023-12-22T11:09:26;100888.12;;;19.44;12.10
64698;BME280;51124;53.394;-6.294;2023-12-22T11:11:58;100893.36;;;19.40;12.07
64698;BME280;51124;53.394;-6.294;2023-12-22T11:14:29;100906.37;;;18.99;12.10
64698;BME280;51124;53.394;-6.294;2023-12-22T11:16:58;100894.63;;;18.79;12.26
64698;BME280;51124;53.394;-6.294;2023-12-22T11:19:27;100914.82;;;19.15;12.37
64698;BME280;51124;53.394;-6.294;2023-12-22T11:21:56;100896.39;;;19.20;12.24
64698;BME280;51124;53.394;-6.294;2023-12-22T11:24:25;100891.88;;;20.02;12.28
64698;BME280;51124;53.394;-6.294;2023-12-22T11:26:57;100883.18;;;19.24;12.33
64698;BME280;51124;53.394;-6.294;2023-12-22T11:29:26;100884.87;;;19.50;12.41
64698;BME280;51124;53.394;-6.294;2023-12-22T11:31:56;100896.63;;;18.56;12.36
64698;BME280;51124;53.394;-6.294;2023-12-22T11:34:26;100895.68;;;19.01;12.70
64698;BME280;51124;53.394;-6.294;2023-12-22T11:36:55;100897.62;;;19.03;12.74
64698;BME280;51124;53.394;-6.294;2023-12-22T11:39:24;100901.84;;;20.21;12.33
64698;BME280;51124;53.394;-6.294;2023-12-22T11:41:52;100896.68;;;18.91;12.79
64698;BME280;51124;53.394;-6.294;2023-12-22T11:44:21;100894.01;;;18.21;12.09
64698;BME280;51124;53.394;-6.294;2023-12-22T11:46:49;100887.53;;;18.28;11.38
64698;BME280;51124;53.394;-6.294;2023-12-22T11:49:16;100895.98;;;19.31;10.39
64698;BME280;51124;53.394;-6.294;2023-12-22T11:51:45;100889.08;;;20.01;9.53
64698;BME280;51124;53.394;-6.294;2023-12-22T11:54:49;100888.28;;;20.59;9.28
64698;BME280;51124;53.394;-6.294;2023-12-22T11:56:46;100878.21;;;19.63;9.11
64698;BME280;51124;53.394;-6.294;2023-12-22T11:59:13;100875.03;;;19.13;9.18
64698;BME280;51124;53.394;-6.294;2023-12-22T12:01:43;100868.76;;;18.38;9.17
64698;BME280;51124;53.394;-6.294;2023-12-22T12:04:11;100867.54;;;19.08;9.56
64698;BME280;51124;53.394;-6.294;2023-12-22T12:06:38;100858.64;;;18.97;9.25
64698;BME280;51124;53.394;-6.294;2023-12-22T12:09:06;100861.76;;;19.45;9.11
64698;BME280;51124;53.394;-6.294;2023-12-22T12:12:28;100847.70;;;19.91;8.96
64698;BME280;51124;53.394;-6.294;2023-12-22T12:14:10;100838.81;;;19.97;8.95
64698;BME280;51124;53.394;-6.294;2023-12-22T12:16:41;100843.63;;;19.29;9.06
64698;BME280;51124;53.394;-6.294;2023-12-22T12:19:10;100843.86;;;18.80;9.10
64698;BME280;51124;53.394;-6.294;2023-12-22T12:21:37;100844.22;;;18.88;8.64
64698;BME280;51124;53.394;-6.294;2023-12-22T12:24:07;100835.17;;;20.44;8.49
64698;BME280;51124;53.394;-6.294;2023-12-22T12:26:46;100843.46;;;19.56;8.78
64698;BME280;51124;53.394;-6.294;2023-12-22T12:29:03;100845.93;;;19.83;8.56
64698;BME280;51124;53.394;-6.294;2023-12-22T12:31:37;100836.84;;;19.10;8.82
64698;BME280;51124;53.394;-6.294;2023-12-22T12:34:05;100847.96;;;18.66;8.81
64698;BME280;51124;53.394;-6.294;2023-12-22T12:36:34;100831.03;;;20.30;8.37
64698;BME280;51124;53.394;-6.294;2023-12-22T12:39:08;100839.49;;;19.90;8.47
64698;BME280;51124;53.394;-6.294;2023-12-22T12:41:39;100830.37;;;20.20;8.29
64698;BME280;51124;53.394;-6.294;2023-12-22T12:44:08;100828.08;;;19.83;8.44
64698;BME280;51124;53.394;-6.294;2023-12-22T12:46:36;100826.04;;;18.71;8.57